Ichikawa, Japan
Current Conditions -  °F | °C
As of 7:30 AM on Tuesday 25 Nov 2014 (Local Time) from RJTT Reporting Station
Light Rain Light Rain  
Wind Chill: 55°   Ceiling: 10000
Heat Index: 55°   Visibility: 6mi
Dew Point: 48°   Wind: 8mph
Humidity: 77%   Direction: 30°NNE
Pressure: 29.97"   Gusts: NA
Location:  35.72°N, 139.93°E
Report Text: RJTT 242230Z 03007KT 9000 -RA FEW015 SCT080 BKN100 13/09 Q1015 NOSIG
Loading
Personal Weather Stations






























Interactive Weather Map New forecast layout! Learn more

10-Day Weather Forecast

Advertisements
Track Severe Weather on mobile